Skagway, AK

5:41 AM AKDT on July 23, 2014 (GMT -0800)
Gustavus (PAGS) Elev 30 ft | 58.43 °N, 135.71 °W | Change Station

Current weather conditions updated 1 day ago

Clear
Clear
54 °F
Feels Like 54 °F
N
9
Wind Variable Wind from SW
Gusts 13 mph

Today is forecast to be Much Warmer than yesterday.

Today
High -- | Low -- °F
--% Chance of Precip.
Yesterday
High -- | Low -- °F
Precip. -- in
4:26 AM 9:47 PM
Waning Crescent, 10% visible
Pressure 29.91 in
Visibility 10.0 miles
Clouds Few 1700 ft
Dew Point 44 °F
Humidity 67%
Rainfall 0.00 in
Snow Depth Not available.
UV 6 out of 12
Pollen Not available.
Air Quality Not available.
Flu Activity Not available.
METAR PAGS 211856Z AUTO 19004KT 10SM FEW017 17/11 A2991 RMK AO1 PNO

More Conditions Fewer Conditions

Pressure 29.91 in
Visibility 10.0 miles
Clouds Few 1700 ft
Dew Point 44 °F
Humidity 67%
Rainfall 0.00 in
Snow Depth Not available.
UV 6 out of 12
Pollen Not available.
Air Quality Not available.
Flu Activity Not available.
METAR PAGS 211856Z AUTO 19004KT 10SM FEW017 17/11 A2991 RMK AO1 PNO

More Conditions Fewer Conditions

10-Day Weather Forecast

Almanac

Astronomy

Jul. 23, 2014 Rise Set
Actual Time 4:26 AM AKDT 9:47 PM AKDT
Civil Twilight 3:20 AM AKDT 10:52 PM AKDT
Nautical Twilight 1:40 AM AKDT 12:35 AM AKDT
Astronomical Twilight Sun does not rise Sun does not rise
Moon 1:59 AM AKDT 7:14 PM AKDT
Length of Visible Light 19h 32m
Length of Day
17h 21m
Tomorrow will be 4m 14s shorter.
Waning Crescent, 10% of the Moon is Illuminated
Today
Waning Crescent
Jul 26
New
Aug 3
First Quarter
Aug 10
Full
Aug 17
Last Quarter

Today's Extremes

State Highs State Lows

Community

WunderPhotos

Upload Photos

1,736,594 photos uploaded!

Nearby

Snow Depth

Station Depth Elevation
Long Lake 0 in 820 ft
Upper Tsaina River 0 in 1750 ft
Moraine 0 in 2100 ft
Granite Creek 0 in 1240 ft
Grandview 2 in 1100 ft

Earthquake Activity

City Distance Mag. Time & Date
No recent earthquake activity has been reported nearby.
Minimum magnitude displayed is 2.5.

Coastal Water Temperatures

Place Temperature
No Stations Reporting

Nearby Weather Stations

Station Location Temp. Windchill Dew Point Humidity Wind Precip. Elev Updated Type
RAWS TAIYA RIVER AK, Skagway, AK 55 °F - 51 °F 86% North  at  0 mph 0.00 in / hr 49 ft 4:24 AM AKDT MADIS
RAWS SHEEP CAMP AK, Skagway, AK 46 °F 46 °F 46 °F 100% North  at  0 mph 0.00 in / hr 919 ft 4:24 AM AKDT MADIS
AKDOT Haines Highway @ Chilkat River Bri, Haines, AK 51 °F - 50 °F 96% SSE  at  0 mph 0.00 in / hr 160 ft 4:50 AM AKDT MADIS
RAWS GOAT LAKE AK, Skagway, AK 46 °F 46 °F 46 °F 100% North  at  - 0.00 in / hr 2924 ft 4:24 AM AKDT MADIS
MARITIME , Sitka, AK 57 °F - 56 °F 95% South  at  24 mph 0.00 in / hr 0 ft 2:00 AM AKDT MADIS

Show More Stations Show Fewer Stations